sensor_id;sensor_type;location;lat;lon;timestamp;P1;durP1;ratioP1;P2;durP2;ratioP2
56599;SDS011;51832;48.152;11.530;2022-11-15T00:04:32;5.60;;;4.20;;
56599;SDS011;51832;48.152;11.530;2022-11-15T00:09:33;4.63;;;3.78;;
56599;SDS011;51832;48.152;11.530;2022-11-15T00:14:33;5.45;;;3.67;;
56599;SDS011;51832;48.152;11.530;2022-11-15T00:19:33;8.05;;;3.90;;
56599;SDS011;51832;48.152;11.530;2022-11-15T00:24:34;4.82;;;3.22;;
56599;SDS011;51832;48.152;11.530;2022-11-15T00:29:35;6.47;;;3.87;;
56599;SDS011;51832;48.152;11.530;2022-11-15T00:34:37;4.90;;;4.00;;
56599;SDS011;51832;48.152;11.530;2022-11-15T00:39:38;5.03;;;3.83;;
56599;SDS011;51832;48.152;11.530;2022-11-15T00:44:38;4.13;;;3.67;;
56599;SDS011;51832;48.152;11.530;2022-11-15T00:49:38;5.60;;;3.50;;
56599;SDS011;51832;48.152;11.530;2022-11-15T00:54:39;9.07;;;4.05;;
56599;SDS011;51832;48.152;11.530;2022-11-15T00:59:39;4.00;;;3.13;;
56599;SDS011;51832;48.152;11.530;2022-11-15T01:04:39;4.50;;;3.25;;
56599;SDS011;51832;48.152;11.530;2022-11-15T01:09:40;3.72;;;3.33;;
56599;SDS011;51832;48.152;11.530;2022-11-15T01:14:40;4.10;;;3.33;;
56599;SDS011;51832;48.152;11.530;2022-11-15T01:19:41;4.95;;;3.38;;
56599;SDS011;51832;48.152;11.530;2022-11-15T01:24:41;6.07;;;3.60;;
56599;SDS011;51832;48.152;11.530;2022-11-15T01:29:41;6.68;;;3.70;;
56599;SDS011;51832;48.152;11.530;2022-11-15T01:34:42;5.85;;;3.50;;
56599;SDS011;51832;48.152;11.530;2022-11-15T01:39:42;4.95;;;3.20;;
56599;SDS011;51832;48.152;11.530;2022-11-15T01:44:44;4.63;;;3.17;;
56599;SDS011;51832;48.152;11.530;2022-11-15T01:49:49;5.28;;;3.38;;
56599;SDS011;51832;48.152;11.530;2022-11-15T01:55:13;3.55;;;3.17;;
56599;SDS011;51832;48.152;11.530;2022-11-15T02:00:19;4.78;;;2.78;;
56599;SDS011;51832;48.152;11.530;2022-11-15T02:05:20;5.85;;;3.13;;
56599;SDS011;51832;48.152;11.530;2022-11-15T02:10:22;5.32;;;3.08;;
56599;SDS011;51832;48.152;11.530;2022-11-15T02:15:24;4.60;;;3.15;;
56599;SDS011;51832;48.152;11.530;2022-11-15T02:20:51;4.57;;;2.95;;
56599;SDS011;51832;48.152;11.530;2022-11-15T02:31:14;4.18;;;2.78;;
56599;SDS011;51832;48.152;11.530;2022-11-15T02:41:34;4.50;;;2.72;;
56599;SDS011;51832;48.152;11.530;2022-11-15T02:46:47;3.17;;;2.45;;
56599;SDS011;51832;48.152;11.530;2022-11-15T02:52:13;4.43;;;2.85;;
56599;SDS011;51832;48.152;11.530;2022-11-15T02:57:15;3.03;;;2.42;;
56599;SDS011;51832;48.152;11.530;2022-11-15T03:07:23;3.67;;;2.33;;
56599;SDS011;51832;48.152;11.530;2022-11-15T03:18:00;3.80;;;2.60;;
56599;SDS011;51832;48.152;11.530;2022-11-15T03:23:06;4.32;;;2.67;;
56599;SDS011;51832;48.152;11.530;2022-11-15T03:28:09;3.05;;;2.58;;
56599;SDS011;51832;48.152;11.530;2022-11-15T03:33:13;3.65;;;2.72;;
56599;SDS011;51832;48.152;11.530;2022-11-15T03:38:24;4.30;;;2.60;;
56599;SDS011;51832;48.152;11.530;2022-11-15T03:43:39;3.03;;;2.45;;
56599;SDS011;51832;48.152;11.530;2022-11-15T03:49:04;3.28;;;2.63;;
56599;SDS011;51832;48.152;11.530;2022-11-15T03:54:11;3.92;;;2.50;;
56599;SDS011;51832;48.152;11.530;2022-11-15T03:59:12;3.55;;;2.45;;
56599;SDS011;51832;48.152;11.530;2022-11-15T04:04:12;3.40;;;2.67;;
56599;SDS011;51832;48.152;11.530;2022-11-15T04:09:13;3.58;;;2.60;;
56599;SDS011;51832;48.152;11.530;2022-11-15T04:14:13;2.97;;;2.22;;
56599;SDS011;51832;48.152;11.530;2022-11-15T04:19:14;3.17;;;2.35;;
56599;SDS011;51832;48.152;11.530;2022-11-15T04:24:43;2.50;;;2.28;;
56599;SDS011;51832;48.152;11.530;2022-11-15T04:29:44;2.95;;;2.47;;
56599;SDS011;51832;48.152;11.530;2022-11-15T04:34:44;3.47;;;2.55;;
56599;SDS011;51832;48.152;11.530;2022-11-15T04:39:45;6.60;;;3.10;;
56599;SDS011;51832;48.152;11.530;2022-11-15T04:44:45;2.65;;;2.10;;
56599;SDS011;51832;48.152;11.530;2022-11-15T04:49:45;3.47;;;2.03;;
56599;SDS011;51832;48.152;11.530;2022-11-15T04:54:46;3.70;;;2.58;;
56599;SDS011;51832;48.152;11.530;2022-11-15T04:59:46;3.05;;;2.08;;
56599;SDS011;51832;48.152;11.530;2022-11-15T05:04:47;3.30;;;2.28;;
56599;SDS011;51832;48.152;11.530;2022-11-15T05:09:47;2.38;;;1.83;;
56599;SDS011;51832;48.152;11.530;2022-11-15T05:14:48;3.35;;;2.25;;
56599;SDS011;51832;48.152;11.530;2022-11-15T05:19:48;2.53;;;2.10;;
56599;SDS011;51832;48.152;11.530;2022-11-15T05:24:49;3.38;;;2.30;;
56599;SDS011;51832;48.152;11.530;2022-11-15T05:29:49;3.63;;;2.30;;
56599;SDS011;51832;48.152;11.530;2022-11-15T05:34:50;9.30;;;3.05;;
56599;SDS011;51832;48.152;11.530;2022-11-15T05:39:51;3.00;;;2.22;;
56599;SDS011;51832;48.152;11.530;2022-11-15T05:44:51;2.70;;;2.00;;
56599;SDS011;51832;48.152;11.530;2022-11-15T05:49:53;3.83;;;2.15;;
56599;SDS011;51832;48.152;11.530;2022-11-15T05:54:53;5.20;;;2.33;;
56599;SDS011;51832;48.152;11.530;2022-11-15T05:59:56;3.70;;;2.35;;
56599;SDS011;51832;48.152;11.530;2022-11-15T06:04:58;3.92;;;2.10;;
56599;SDS011;51832;48.152;11.530;2022-11-15T06:09:58;4.43;;;2.08;;
56599;SDS011;51832;48.152;11.530;2022-11-15T06:14:59;3.75;;;2.30;;
56599;SDS011;51832;48.152;11.530;2022-11-15T06:19:59;4.15;;;2.53;;
56599;SDS011;51832;48.152;11.530;2022-11-15T06:25:00;4.80;;;2.58;;
56599;SDS011;51832;48.152;11.530;2022-11-15T06:30:00;4.97;;;2.92;;
56599;SDS011;51832;48.152;11.530;2022-11-15T06:35:01;5.10;;;3.13;;
56599;SDS011;51832;48.152;11.530;2022-11-15T06:40:02;7.05;;;2.88;;
56599;SDS011;51832;48.152;11.530;2022-11-15T06:45:02;4.53;;;2.97;;
56599;SDS011;51832;48.152;11.530;2022-11-15T06:50:03;6.97;;;3.83;;
56599;SDS011;51832;48.152;11.530;2022-11-15T06:55:04;7.72;;;3.42;;
56599;SDS011;51832;48.152;11.530;2022-11-15T07:00:05;6.45;;;2.90;;
56599;SDS011;51832;48.152;11.530;2022-11-15T07:05:06;3.85;;;2.45;;
56599;SDS011;51832;48.152;11.530;2022-11-15T07:10:07;5.32;;;2.75;;
56599;SDS011;51832;48.152;11.530;2022-11-15T07:15:08;4.97;;;3.25;;
56599;SDS011;51832;48.152;11.530;2022-11-15T07:20:09;5.63;;;2.90;;
56599;SDS011;51832;48.152;11.530;2022-11-15T07:25:10;6.15;;;2.90;;
56599;SDS011;51832;48.152;11.530;2022-11-15T07:30:11;7.65;;;3.03;;
56599;SDS011;51832;48.152;11.530;2022-11-15T07:35:12;5.70;;;3.00;;
56599;SDS011;51832;48.152;11.530;2022-11-15T07:40:12;4.32;;;2.50;;
56599;SDS011;51832;48.152;11.530;2022-11-15T07:45:13;4.95;;;2.70;;
56599;SDS011;51832;48.152;11.530;2022-11-15T07:50:13;3.22;;;2.40;;
56599;SDS011;51832;48.152;11.530;2022-11-15T07:55:14;7.03;;;4.05;;
56599;SDS011;51832;48.152;11.530;2022-11-15T08:00:14;4.85;;;2.45;;
56599;SDS011;51832;48.152;11.530;2022-11-15T08:05:15;5.03;;;2.88;;
56599;SDS011;51832;48.152;11.530;2022-11-15T08:10:16;5.25;;;3.00;;
56599;SDS011;51832;48.152;11.530;2022-11-15T08:15:19;4.30;;;2.58;;
56599;SDS011;51832;48.152;11.530;2022-11-15T08:20:19;7.45;;;3.22;;
56599;SDS011;51832;48.152;11.530;2022-11-15T08:25:20;6.75;;;2.58;;
56599;SDS011;51832;48.152;11.530;2022-11-15T08:30:20;4.88;;;2.97;;
56599;SDS011;51832;48.152;11.530;2022-11-15T08:35:21;6.70;;;3.25;;
56599;SDS011;51832;48.152;11.530;2022-11-15T08:40:22;7.93;;;3.70;;
56599;SDS011;51832;48.152;11.530;2022-11-15T08:45:22;4.30;;;2.90;;
56599;SDS011;51832;48.152;11.530;2022-11-15T08:50:23;6.33;;;3.17;;
56599;SDS011;51832;48.152;11.530;2022-11-15T08:55:23;4.90;;;2.53;;
56599;SDS011;51832;48.152;11.530;2022-11-15T09:00:23;4.97;;;2.40;;
56599;SDS011;51832;48.152;11.530;2022-11-15T09:05:24;5.05;;;3.20;;
56599;SDS011;51832;48.152;11.530;2022-11-15T09:10:25;5.70;;;3.60;;
56599;SDS011;51832;48.152;11.530;2022-11-15T09:15:25;4.97;;;2.60;;
56599;SDS011;51832;48.152;11.530;2022-11-15T09:20:26;4.50;;;3.20;;
56599;SDS011;51832;48.152;11.530;2022-11-15T09:25:27;5.27;;;2.73;;
56599;SDS011;51832;48.152;11.530;2022-11-15T09:30:27;6.25;;;3.78;;
56599;SDS011;51832;48.152;11.530;2022-11-15T09:35:28;11.95;;;6.63;;
56599;SDS011;51832;48.152;11.530;2022-11-15T09:40:29;5.88;;;3.40;;
56599;SDS011;51832;48.152;11.530;2022-11-15T09:50:41;5.43;;;3.47;;
56599;SDS011;51832;48.152;11.530;2022-11-15T10:01:00;3.75;;;3.00;;
56599;SDS011;51832;48.152;11.530;2022-11-15T10:06:09;5.10;;;2.95;;
56599;SDS011;51832;48.152;11.530;2022-11-15T10:11:25;6.20;;;3.22;;
56599;SDS011;51832;48.152;11.530;2022-11-15T10:16:45;3.70;;;3.10;;
56599;SDS011;51832;48.152;11.530;2022-11-15T10:27:28;4.68;;;3.30;;
56599;SDS011;51832;48.152;11.530;2022-11-15T10:32:29;6.10;;;2.97;;
56599;SDS011;51832;48.152;11.530;2022-11-15T10:37:34;4.53;;;3.05;;
56599;SDS011;51832;48.152;11.530;2022-11-15T10:42:34;4.03;;;2.85;;
56599;SDS011;51832;48.152;11.530;2022-11-15T10:47:35;2.58;;;2.35;;
56599;SDS011;51832;48.152;11.530;2022-11-15T10:52:36;4.20;;;2.63;;
56599;SDS011;51832;48.152;11.530;2022-11-15T10:57:49;2.60;;;2.20;;
56599;SDS011;51832;48.152;11.530;2022-11-15T11:13:14;3.45;;;2.33;;
56599;SDS011;51832;48.152;11.530;2022-11-15T11:18:36;4.53;;;2.70;;
56599;SDS011;51832;48.152;11.530;2022-11-15T11:23:54;2.75;;;1.98;;
56599;SDS011;51832;48.152;11.530;2022-11-15T11:45:24;2.42;;;1.92;;
56599;SDS011;51832;48.152;11.530;2022-11-15T11:50:36;3.60;;;1.92;;
56599;SDS011;51832;48.152;11.530;2022-11-15T11:55:43;3.85;;;2.10;;
56599;SDS011;51832;48.152;11.530;2022-11-15T12:00:54;2.30;;;1.80;;
56599;SDS011;51832;48.152;11.530;2022-11-15T12:06:02;2.67;;;1.90;;
56599;SDS011;51832;48.152;11.530;2022-11-15T12:16:31;3.03;;;1.90;;
56599;SDS011;51832;48.152;11.530;2022-11-15T12:26:46;3.30;;;2.00;;
56599;SDS011;51832;48.152;11.530;2022-11-15T12:37:02;2.58;;;2.20;;
56599;SDS011;51832;48.152;11.530;2022-11-15T12:58:27;2.28;;;2.05;;
56599;SDS011;51832;48.152;11.530;2022-11-15T13:25:15;2.50;;;2.30;;
56599;SDS011;51832;48.152;11.530;2022-11-15T13:30:20;4.93;;;2.20;;
56599;SDS011;51832;48.152;11.530;2022-11-15T13:35:24;3.15;;;2.45;;
56599;SDS011;51832;48.152;11.530;2022-11-15T13:40:27;2.30;;;2.10;;
56599;SDS011;51832;48.152;11.530;2022-11-15T13:45:33;2.42;;;2.10;;
56599;SDS011;51832;48.152;11.530;2022-11-15T13:50:34;2.88;;;2.40;;
56599;SDS011;51832;48.152;11.530;2022-11-15T13:55:38;3.78;;;2.10;;
56599;SDS011;51832;48.152;11.530;2022-11-15T14:00:40;5.15;;;2.65;;
56599;SDS011;51832;48.152;11.530;2022-11-15T14:05:45;4.00;;;2.50;;
56599;SDS011;51832;48.152;11.530;2022-11-15T14:11:20;2.75;;;2.55;;
56599;SDS011;51832;48.152;11.530;2022-11-15T14:16:21;2.83;;;2.53;;
56599;SDS011;51832;48.152;11.530;2022-11-15T14:21:32;3.87;;;2.73;;
56599;SDS011;51832;48.152;11.530;2022-11-15T14:26:33;3.33;;;2.55;;
56599;SDS011;51832;48.152;11.530;2022-11-15T14:31:35;2.45;;;2.25;;
56599;SDS011;51832;48.152;11.530;2022-11-15T14:36:35;5.78;;;2.65;;
56599;SDS011;51832;48.152;11.530;2022-11-15T14:41:36;2.53;;;2.30;;
56599;SDS011;51832;48.152;11.530;2022-11-15T14:46:37;4.32;;;2.97;;
56599;SDS011;51832;48.152;11.530;2022-11-15T14:51:38;4.17;;;3.77;;
56599;SDS011;51832;48.152;11.530;2022-11-15T14:56:38;4.40;;;4.00;;
56599;SDS011;51832;48.152;11.530;2022-11-15T15:01:38;4.63;;;3.90;;
56599;SDS011;51832;48.152;11.530;2022-11-15T15:06:39;5.68;;;4.55;;
56599;SDS011;51832;48.152;11.530;2022-11-15T15:11:40;8.35;;;7.05;;
56599;SDS011;51832;48.152;11.530;2022-11-15T15:16:40;6.00;;;4.50;;
56599;SDS011;51832;48.152;11.530;2022-11-15T15:21:40;6.45;;;4.53;;
56599;SDS011;51832;48.152;11.530;2022-11-15T15:26:41;8.35;;;5.50;;
56599;SDS011;51832;48.152;11.530;2022-11-15T15:31:43;7.68;;;5.10;;
56599;SDS011;51832;48.152;11.530;2022-11-15T15:36:43;7.53;;;5.30;;
56599;SDS011;51832;48.152;11.530;2022-11-15T15:41:44;6.00;;;5.40;;
56599;SDS011;51832;48.152;11.530;2022-11-15T15:46:44;6.13;;;5.22;;
56599;SDS011;51832;48.152;11.530;2022-11-15T15:51:44;7.07;;;5.50;;
56599;SDS011;51832;48.152;11.530;2022-11-15T15:56:45;8.30;;;5.40;;
56599;SDS011;51832;48.152;11.530;2022-11-15T16:01:45;6.05;;;4.90;;
56599;SDS011;51832;48.152;11.530;2022-11-15T16:06:46;8.00;;;5.23;;
56599;SDS011;51832;48.152;11.530;2022-11-15T16:11:47;8.85;;;5.63;;
56599;SDS011;51832;48.152;11.530;2022-11-15T16:16:47;6.22;;;5.60;;
56599;SDS011;51832;48.152;11.530;2022-11-15T16:21:48;8.35;;;5.88;;
56599;SDS011;51832;48.152;11.530;2022-11-15T16:26:48;8.53;;;6.00;;
56599;SDS011;51832;48.152;11.530;2022-11-15T16:31:50;8.25;;;5.78;;
56599;SDS011;51832;48.152;11.530;2022-11-15T16:36:51;6.67;;;5.60;;
56599;SDS011;51832;48.152;11.530;2022-11-15T16:41:53;12.75;;;5.93;;
56599;SDS011;51832;48.152;11.530;2022-11-15T16:46:53;7.68;;;5.78;;
56599;SDS011;51832;48.152;11.530;2022-11-15T16:51:54;11.38;;;6.07;;
56599;SDS011;51832;48.152;11.530;2022-11-15T16:56:54;7.30;;;5.70;;
56599;SDS011;51832;48.152;11.530;2022-11-15T17:01:54;10.07;;;6.40;;
56599;SDS011;51832;48.152;11.530;2022-11-15T17:06:55;10.18;;;6.75;;
56599;SDS011;51832;48.152;11.530;2022-11-15T17:11:55;11.25;;;6.72;;
56599;SDS011;51832;48.152;11.530;2022-11-15T17:16:56;12.23;;;6.47;;
56599;SDS011;51832;48.152;11.530;2022-11-15T17:21:56;14.15;;;7.05;;
56599;SDS011;51832;48.152;11.530;2022-11-15T17:26:56;10.83;;;6.67;;
56599;SDS011;51832;48.152;11.530;2022-11-15T17:31:57;11.47;;;8.50;;
56599;SDS011;51832;48.152;11.530;2022-11-15T17:36:57;12.70;;;8.70;;
56599;SDS011;51832;48.152;11.530;2022-11-15T17:41:58;13.20;;;8.30;;
56599;SDS011;51832;48.152;11.530;2022-11-15T17:46:58;13.00;;;8.52;;
56599;SDS011;51832;48.152;11.530;2022-11-15T17:51:59;11.65;;;8.20;;
56599;SDS011;51832;48.152;11.530;2022-11-15T17:56:59;12.85;;;8.80;;
56599;SDS011;51832;48.152;11.530;2022-11-15T18:02:00;15.27;;;8.65;;
56599;SDS011;51832;48.152;11.530;2022-11-15T18:07:02;15.93;;;9.43;;
56599;SDS011;51832;48.152;11.530;2022-11-15T18:12:02;15.98;;;9.63;;
56599;SDS011;51832;48.152;11.530;2022-11-15T18:17:03;12.65;;;8.15;;
56599;SDS011;51832;48.152;11.530;2022-11-15T18:22:03;13.43;;;8.73;;
56599;SDS011;51832;48.152;11.530;2022-11-15T18:27:06;12.20;;;8.40;;
56599;SDS011;51832;48.152;11.530;2022-11-15T18:32:07;11.38;;;7.55;;
56599;SDS011;51832;48.152;11.530;2022-11-15T18:37:11;13.48;;;8.40;;
56599;SDS011;51832;48.152;11.530;2022-11-15T18:42:12;12.48;;;7.25;;
56599;SDS011;51832;48.152;11.530;2022-11-15T18:47:12;13.00;;;7.68;;
56599;SDS011;51832;48.152;11.530;2022-11-15T18:52:13;11.93;;;7.68;;
56599;SDS011;51832;48.152;11.530;2022-11-15T18:57:13;10.32;;;6.35;;
56599;SDS011;51832;48.152;11.530;2022-11-15T19:02:14;11.95;;;7.72;;
56599;SDS011;51832;48.152;11.530;2022-11-15T19:07:14;10.55;;;7.75;;
56599;SDS011;51832;48.152;11.530;2022-11-15T19:12:15;10.60;;;7.38;;
56599;SDS011;51832;48.152;11.530;2022-11-15T19:17:15;15.50;;;8.95;;
56599;SDS011;51832;48.152;11.530;2022-11-15T19:22:16;9.30;;;7.28;;
56599;SDS011;51832;48.152;11.530;2022-11-15T19:27:16;9.10;;;6.32;;
56599;SDS011;51832;48.152;11.530;2022-11-15T19:32:17;8.45;;;5.90;;
56599;SDS011;51832;48.152;11.530;2022-11-15T19:37:17;11.68;;;7.55;;
56599;SDS011;51832;48.152;11.530;2022-11-15T19:42:18;9.10;;;6.30;;
56599;SDS011;51832;48.152;11.530;2022-11-15T19:47:18;10.23;;;7.05;;
56599;SDS011;51832;48.152;11.530;2022-11-15T19:52:19;8.50;;;6.00;;
56599;SDS011;51832;48.152;11.530;2022-11-15T19:57:21;10.63;;;6.82;;
56599;SDS011;51832;48.152;11.530;2022-11-15T20:02:21;10.87;;;6.20;;
56599;SDS011;51832;48.152;11.530;2022-11-15T20:07:22;8.93;;;6.30;;
56599;SDS011;51832;48.152;11.530;2022-11-15T20:12:22;11.57;;;6.78;;
56599;SDS011;51832;48.152;11.530;2022-11-15T20:17:22;11.38;;;6.75;;
56599;SDS011;51832;48.152;11.530;2022-11-15T20:22:24;10.93;;;6.80;;
56599;SDS011;51832;48.152;11.530;2022-11-15T20:27:24;11.65;;;7.53;;
56599;SDS011;51832;48.152;11.530;2022-11-15T20:32:25;8.30;;;5.85;;
56599;SDS011;51832;48.152;11.530;2022-11-15T20:37:26;9.15;;;5.75;;
56599;SDS011;51832;48.152;11.530;2022-11-15T20:42:27;9.73;;;6.73;;
56599;SDS011;51832;48.152;11.530;2022-11-15T20:47:28;10.85;;;6.82;;
56599;SDS011;51832;48.152;11.530;2022-11-15T20:52:30;9.57;;;6.53;;
56599;SDS011;51832;48.152;11.530;2022-11-15T20:57:30;8.23;;;6.28;;
56599;SDS011;51832;48.152;11.530;2022-11-15T21:02:31;10.73;;;7.25;;
56599;SDS011;51832;48.152;11.530;2022-11-15T21:07:32;11.18;;;6.85;;
56599;SDS011;51832;48.152;11.530;2022-11-15T21:12:32;9.90;;;6.75;;
56599;SDS011;51832;48.152;11.530;2022-11-15T21:17:33;9.38;;;6.80;;
56599;SDS011;51832;48.152;11.530;2022-11-15T21:22:33;10.00;;;6.90;;
56599;SDS011;51832;48.152;11.530;2022-11-15T21:27:34;10.27;;;6.38;;
56599;SDS011;51832;48.152;11.530;2022-11-15T21:32:34;9.85;;;6.80;;
56599;SDS011;51832;48.152;11.530;2022-11-15T21:37:36;9.93;;;6.63;;
56599;SDS011;51832;48.152;11.530;2022-11-15T21:42:36;10.68;;;6.20;;
56599;SDS011;51832;48.152;11.530;2022-11-15T21:47:36;10.65;;;7.25;;
56599;SDS011;51832;48.152;11.530;2022-11-15T21:52:37;9.88;;;6.90;;
56599;SDS011;51832;48.152;11.530;2022-11-15T21:57:37;9.13;;;6.77;;
56599;SDS011;51832;48.152;11.530;2022-11-15T22:02:37;8.93;;;6.67;;
56599;SDS011;51832;48.152;11.530;2022-11-15T22:07:38;9.83;;;6.23;;
56599;SDS011;51832;48.152;11.530;2022-11-15T22:12:38;10.57;;;6.43;;
56599;SDS011;51832;48.152;11.530;2022-11-15T22:17:39;10.50;;;6.25;;
56599;SDS011;51832;48.152;11.530;2022-11-15T22:22:58;8.00;;;5.32;;
56599;SDS011;51832;48.152;11.530;2022-11-15T22:27:58;8.52;;;6.32;;
56599;SDS011;51832;48.152;11.530;2022-11-15T22:32:59;8.90;;;5.85;;
56599;SDS011;51832;48.152;11.530;2022-11-15T22:37:59;7.25;;;5.70;;
56599;SDS011;51832;48.152;11.530;2022-11-15T22:43:00;9.80;;;5.78;;
56599;SDS011;51832;48.152;11.530;2022-11-15T22:48:00;9.75;;;5.97;;
56599;SDS011;51832;48.152;11.530;2022-11-15T22:53:01;8.35;;;5.65;;
56599;SDS011;51832;48.152;11.530;2022-11-15T22:58:01;8.88;;;6.20;;
56599;SDS011;51832;48.152;11.530;2022-11-15T23:03:02;10.75;;;6.03;;
56599;SDS011;51832;48.152;11.530;2022-11-15T23:08:03;8.88;;;6.40;;
56599;SDS011;51832;48.152;11.530;2022-11-15T23:13:04;9.32;;;6.07;;
56599;SDS011;51832;48.152;11.530;2022-11-15T23:18:17;9.23;;;6.78;;
56599;SDS011;51832;48.152;11.530;2022-11-15T23:23:18;11.10;;;7.03;;
56599;SDS011;51832;48.152;11.530;2022-11-15T23:28:18;9.70;;;6.30;;
56599;SDS011;51832;48.152;11.530;2022-11-15T23:33:19;10.68;;;7.05;;
56599;SDS011;51832;48.152;11.530;2022-11-15T23:38:38;12.07;;;6.90;;
56599;SDS011;51832;48.152;11.530;2022-11-15T23:43:39;7.65;;;6.20;;
56599;SDS011;51832;48.152;11.530;2022-11-15T23:48:39;8.20;;;6.07;;
56599;SDS011;51832;48.152;11.530;2022-11-15T23:53:40;7.07;;;5.40;;
56599;SDS011;51832;48.152;11.530;2022-11-15T23:58:41;6.97;;;5.15;;
